createdAt,value
2023-03-07T00:01:33.660Z,-2.70
2023-03-07T00:05:35.136Z,-2.45
2023-03-07T00:09:36.621Z,-2.41
2023-03-07T00:13:38.247Z,-2.59
2023-03-07T00:17:40.089Z,-2.45
2023-03-07T00:21:41.551Z,-2.40
2023-03-07T00:25:43.451Z,-2.31
2023-03-07T00:29:44.881Z,-2.19
2023-03-07T00:33:47.015Z,-2.32
2023-03-07T00:37:48.404Z,-2.37
2023-03-07T00:41:49.809Z,-2.20
2023-03-07T00:45:51.382Z,-2.13
2023-03-07T00:49:52.894Z,-2.25
2023-03-07T00:53:54.386Z,-2.35
2023-03-07T00:57:55.851Z,-2.31
2023-03-07T01:01:57.266Z,-2.25
2023-03-07T01:06:03.517Z,-2.30
2023-03-07T01:10:05.378Z,-2.19
2023-03-07T01:14:06.953Z,-2.24
2023-03-07T01:18:10.595Z,-2.10
2023-03-07T01:22:11.999Z,-2.04
2023-03-07T01:26:18.742Z,-2.39
2023-03-07T01:30:20.277Z,-2.14
2023-03-07T01:34:21.846Z,-2.09
2023-03-07T01:38:23.341Z,-2.08
2023-03-07T01:42:25.001Z,-1.88
2023-03-07T01:46:49.977Z,-1.84
2023-03-07T01:50:51.558Z,-1.87
2023-03-07T01:54:58.281Z,-1.82
2023-03-07T01:59:00.367Z,-1.84
2023-03-07T02:03:01.785Z,-1.58
2023-03-07T02:07:03.543Z,-1.64
2023-03-07T02:11:05.886Z,-1.67
2023-03-07T02:15:11.825Z,-1.50
2023-03-07T02:19:33.180Z,-1.49
2023-03-07T02:23:50.526Z,-1.45
2023-03-07T02:27:54.803Z,-1.43
2023-03-07T02:31:56.255Z,-1.40
2023-03-07T02:36:21.914Z,-1.41
2023-03-07T02:40:27.005Z,-1.39
2023-03-07T02:44:28.504Z,-1.33
2023-03-07T02:48:30.099Z,-1.33
2023-03-07T02:52:31.605Z,-1.21
2023-03-07T02:56:33.029Z,-1.21
2023-03-07T03:00:34.593Z,-1.21
2023-03-07T03:04:36.105Z,-1.19
2023-03-07T03:08:37.517Z,-1.13
2023-03-07T03:12:39.038Z,-1.15
2023-03-07T03:16:41.261Z,-1.07
2023-03-07T03:20:42.761Z,-1.10
2023-03-07T03:24:44.230Z,-1.11
2023-03-07T03:28:45.680Z,-0.95
2023-03-07T03:32:47.236Z,-1.02
2023-03-07T03:36:48.676Z,-1.07
2023-03-07T03:40:50.126Z,-0.91
2023-03-07T03:44:51.622Z,-0.99
2023-03-07T03:48:54.540Z,-1.02
2023-03-07T03:52:56.017Z,-1.00
2023-03-07T03:56:57.821Z,-1.08
2023-03-07T04:01:07.633Z,-0.86
2023-03-07T04:05:09.258Z,-0.92
2023-03-07T04:09:10.726Z,-0.87
2023-03-07T04:13:12.161Z,-0.88
2023-03-07T04:17:13.585Z,-0.79
2023-03-07T04:21:15.013Z,-0.77
2023-03-07T04:25:16.549Z,-0.70
2023-03-07T04:29:17.982Z,-0.70
2023-03-07T04:33:20.327Z,-0.57
2023-03-07T04:37:21.722Z,-0.46
2023-03-07T04:41:26.521Z,-0.43
2023-03-07T04:45:27.985Z,-0.45
2023-03-07T04:49:29.409Z,-0.58
2023-03-07T04:53:30.926Z,-0.63
2023-03-07T04:57:32.387Z,-0.72
2023-03-07T05:01:33.864Z,-0.79
2023-03-07T05:05:37.575Z,-0.77
2023-03-07T05:09:39.179Z,-0.83
2023-03-07T05:13:40.672Z,-0.70
2023-03-07T05:17:42.114Z,-0.75
2023-03-07T05:21:44.152Z,-0.70
2023-03-07T05:25:47.037Z,-0.64
2023-03-07T05:29:48.559Z,-0.72
2023-03-07T05:33:49.970Z,-0.70
2023-03-07T05:37:52.300Z,-0.56
2023-03-07T05:41:53.750Z,-0.63
2023-03-07T05:45:55.266Z,-0.58
2023-03-07T05:49:56.837Z,-0.53
2023-03-07T05:53:58.284Z,-0.61
2023-03-07T05:57:59.944Z,-0.65
2023-03-07T06:02:01.418Z,-0.52
2023-03-07T06:06:03.221Z,-0.48
2023-03-07T06:10:05.090Z,-0.42
2023-03-07T06:14:06.568Z,-0.34
2023-03-07T06:18:07.999Z,-0.40
2023-03-07T06:22:09.497Z,-0.37
2023-03-07T06:26:12.485Z,-0.42
2023-03-07T06:30:14.338Z,-0.36
2023-03-07T06:34:15.768Z,-0.29
2023-03-07T06:38:17.668Z,-0.33
2023-03-07T06:42:19.091Z,-0.25
2023-03-07T06:46:21.596Z,-0.27
2023-03-07T06:50:33.483Z,-0.18
2023-03-07T06:54:36.470Z,-0.19
2023-03-07T06:58:37.947Z,-0.06
2023-03-07T07:02:39.479Z,-0.05
2023-03-07T07:06:41.056Z,0.00
2023-03-07T07:10:42.543Z,-0.07
2023-03-07T07:14:44.083Z,0.06
2023-03-07T07:18:46.220Z,0.15
2023-03-07T07:22:47.676Z,0.15
2023-03-07T07:26:49.344Z,0.29
2023-03-07T07:30:51.266Z,0.28
2023-03-07T07:34:52.819Z,0.32
2023-03-07T07:38:54.455Z,0.37
2023-03-07T07:42:55.956Z,0.37
2023-03-07T07:46:57.836Z,0.49
2023-03-07T07:51:03.539Z,0.57
2023-03-07T07:55:05.583Z,0.60
2023-03-07T07:59:07.099Z,0.52
2023-03-07T08:03:08.612Z,0.61
2023-03-07T08:07:10.175Z,0.58
2023-03-07T08:11:11.642Z,0.71
2023-03-07T08:15:13.620Z,0.63
2023-03-07T08:19:15.282Z,0.75
2023-03-07T08:23:16.858Z,0.80
2023-03-07T08:27:18.351Z,0.91
2023-03-07T08:31:25.679Z,1.00
2023-03-07T08:35:28.392Z,1.10
2023-03-07T08:39:29.872Z,1.20
2023-03-07T08:43:32.902Z,1.38
2023-03-07T08:47:34.535Z,1.40
2023-03-07T08:51:36.023Z,1.56
2023-03-07T08:55:37.470Z,1.76
2023-03-07T08:59:38.975Z,1.81
2023-03-07T09:03:40.594Z,1.79
2023-03-07T09:07:43.024Z,1.92
2023-03-07T09:11:44.496Z,1.92
2023-03-07T09:15:46.042Z,2.05
2023-03-07T09:19:47.601Z,2.14
2023-03-07T09:23:49.087Z,2.24
2023-03-07T09:27:53.342Z,2.52
2023-03-07T09:31:54.909Z,2.56
2023-03-07T09:35:56.470Z,2.72
2023-03-07T09:39:57.968Z,3.03
2023-03-07T09:44:41.904Z,2.90
2023-03-07T09:48:53.120Z,2.76
2023-03-07T09:53:01.810Z,2.80
2023-03-07T09:57:05.669Z,2.73
2023-03-07T10:01:12.250Z,2.66
2023-03-07T10:05:39.512Z,2.69
2023-03-07T10:09:41.866Z,2.60
2023-03-07T10:13:48.327Z,2.61
2023-03-07T10:17:52.778Z,2.64
2023-03-07T10:22:43.907Z,2.71
2023-03-07T10:27:00.668Z,2.45
2023-03-07T10:31:19.444Z,2.35
2023-03-07T10:35:24.427Z,2.49
2023-03-07T10:39:50.562Z,2.34
2023-03-07T10:43:53.880Z,2.41
2023-03-07T10:47:55.581Z,2.41
2023-03-07T10:52:06.614Z,2.37
2023-03-07T10:56:09.437Z,2.30
2023-03-07T11:00:17.943Z,2.35
2023-03-07T11:04:21.693Z,2.32
2023-03-07T11:08:31.432Z,2.33
2023-03-07T11:12:45.484Z,2.36
2023-03-07T11:16:51.193Z,2.30
2023-03-07T11:20:52.751Z,2.29
2023-03-07T11:25:08.344Z,1.99
2023-03-07T11:29:13.056Z,2.13
2023-03-07T11:33:44.332Z,2.28
2023-03-07T11:38:02.943Z,2.28
2023-03-07T11:42:15.713Z,2.12
2023-03-07T11:46:42.090Z,2.19
2023-03-07T11:50:52.596Z,2.24
2023-03-07T11:54:54.019Z,2.40
2023-03-07T11:58:55.405Z,2.38
2023-03-07T12:03:18.653Z,2.06
2023-03-07T12:07:48.988Z,2.21
2023-03-07T12:12:16.274Z,2.12
2023-03-07T12:16:42.147Z,2.07
2023-03-07T12:21:17.912Z,2.05
2023-03-07T12:25:33.250Z,2.15
2023-03-07T12:29:42.713Z,1.87
2023-03-07T12:33:54.113Z,1.81
2023-03-07T12:38:09.215Z,1.73
2023-03-07T12:42:32.485Z,1.60
2023-03-07T12:46:52.693Z,1.45
2023-03-07T12:51:00.004Z,1.27
2023-03-07T12:55:08.792Z,1.21
2023-03-07T12:59:15.577Z,1.29
2023-03-07T13:03:41.545Z,1.14
2023-03-07T13:07:44.416Z,1.16
2023-03-07T13:12:07.347Z,1.06
2023-03-07T13:16:11.696Z,1.04
2023-03-07T13:20:19.019Z,0.78
2023-03-07T13:24:36.461Z,0.60
2023-03-07T13:28:39.488Z,0.70
2023-03-07T13:32:55.847Z,0.72
2023-03-07T13:36:57.347Z,0.82
2023-03-07T13:41:01.555Z,0.96
2023-03-07T13:45:38.013Z,0.91
2023-03-07T13:49:42.133Z,0.67
2023-03-07T13:53:46.137Z,0.89
2023-03-07T13:57:48.928Z,0.75
2023-03-07T14:02:03.329Z,0.77
2023-03-07T14:06:20.578Z,0.84
2023-03-07T14:10:26.447Z,0.72
2023-03-07T14:14:46.698Z,0.79
2023-03-07T14:19:00.269Z,1.03
2023-03-07T14:23:34.861Z,0.75
2023-03-07T14:27:54.676Z,0.73
2023-03-07T14:31:58.327Z,0.56
2023-03-07T14:36:00.467Z,0.62
2023-03-07T14:40:09.858Z,0.79
2023-03-07T14:44:33.838Z,0.95
2023-03-07T14:48:52.837Z,0.79
2023-03-07T14:53:11.953Z,0.70
2023-03-07T14:57:24.035Z,0.93
2023-03-07T15:01:35.474Z,0.91
2023-03-07T15:05:47.415Z,0.92
2023-03-07T15:09:48.970Z,1.01
2023-03-07T15:13:52.458Z,0.99
2023-03-07T15:17:58.410Z,1.05
2023-03-07T15:22:02.517Z,0.94
2023-03-07T15:26:06.635Z,0.96
2023-03-07T15:30:22.869Z,1.11
2023-03-07T15:34:30.632Z,0.87
2023-03-07T15:38:33.197Z,1.09
2023-03-07T15:42:52.437Z,1.13
2023-03-07T15:46:56.079Z,1.06
2023-03-07T15:51:01.017Z,1.04
2023-03-07T15:55:08.105Z,1.09
2023-03-07T15:59:43.832Z,1.17
2023-03-07T16:03:49.628Z,1.16
2023-03-07T16:07:53.388Z,1.14
2023-03-07T16:11:55.197Z,1.11
2023-03-07T16:16:01.017Z,1.08
2023-03-07T16:20:04.433Z,0.97
2023-03-07T16:24:06.131Z,1.12
2023-03-07T16:28:11.691Z,0.98
2023-03-07T16:32:18.418Z,1.11
2023-03-07T16:36:20.096Z,1.11
2023-03-07T16:40:22.821Z,1.03
2023-03-07T16:44:24.582Z,1.04
2023-03-07T16:48:26.145Z,0.93
2023-03-07T16:52:27.609Z,0.98
2023-03-07T16:56:33.158Z,0.82
2023-03-07T17:00:34.728Z,0.83
2023-03-07T17:04:36.228Z,0.87
2023-03-07T17:08:37.643Z,0.84
2023-03-07T17:12:41.039Z,0.94
2023-03-07T17:16:45.127Z,0.86
2023-03-07T17:20:46.692Z,0.85
2023-03-07T17:24:48.146Z,0.69
2023-03-07T17:28:50.614Z,0.68
2023-03-07T17:32:52.235Z,0.61
2023-03-07T17:36:53.893Z,0.63
2023-03-07T17:40:56.417Z,0.59
2023-03-07T17:44:57.834Z,0.53
2023-03-07T17:48:59.240Z,0.48
2023-03-07T17:53:00.762Z,0.36
2023-03-07T17:57:02.516Z,0.37
2023-03-07T18:01:08.450Z,0.35
2023-03-07T18:05:12.823Z,0.34
2023-03-07T18:09:15.224Z,0.49
2023-03-07T18:13:16.978Z,0.28
2023-03-07T18:17:18.460Z,0.29
2023-03-07T18:21:23.444Z,0.17
2023-03-07T18:25:25.704Z,0.18
2023-03-07T18:29:28.164Z,0.27
2023-03-07T18:33:31.597Z,0.11
2023-03-07T18:37:33.084Z,0.07
2023-03-07T18:41:34.500Z,0.00
2023-03-07T18:45:35.988Z,0.13
2023-03-07T18:49:38.790Z,0.14
2023-03-07T18:53:41.264Z,0.01
2023-03-07T18:57:45.704Z,0.18
2023-03-07T19:01:50.106Z,0.19
2023-03-07T19:05:52.221Z,0.04
2023-03-07T19:09:53.919Z,0.09
2023-03-07T19:13:56.243Z,0.24
2023-03-07T19:17:57.690Z,0.14
2023-03-07T19:21:59.128Z,0.03
2023-03-07T19:26:05.315Z,-0.11
2023-03-07T19:30:07.312Z,0.06
2023-03-07T19:34:08.780Z,-0.02
2023-03-07T19:38:10.233Z,-0.05
2023-03-07T19:42:11.660Z,-0.14
2023-03-07T19:46:15.243Z,-0.12
2023-03-07T19:50:17.882Z,-0.13
2023-03-07T19:54:20.429Z,-0.06
2023-03-07T19:58:21.938Z,0.09
2023-03-07T20:02:23.382Z,0.15
2023-03-07T20:06:28.015Z,-0.12
2023-03-07T20:10:29.560Z,0.00
2023-03-07T20:14:31.016Z,0.10
2023-03-07T20:18:32.782Z,-0.01
2023-03-07T20:22:34.488Z,0.11
2023-03-07T20:26:38.210Z,0.03
2023-03-07T20:30:40.767Z,-0.15
2023-03-07T20:34:43.080Z,-0.07
2023-03-07T20:38:48.853Z,0.04
2023-03-07T20:42:50.298Z,0.08
2023-03-07T20:46:51.776Z,-0.10
2023-03-07T20:50:53.220Z,-0.08
2023-03-07T20:54:54.662Z,-0.27
2023-03-07T20:58:56.996Z,-0.27
2023-03-07T21:03:05.712Z,-0.24
2023-03-07T21:07:07.685Z,-0.30
2023-03-07T21:11:15.276Z,-0.49
2023-03-07T21:15:16.730Z,-0.45
2023-03-07T21:19:18.236Z,-0.40
2023-03-07T21:23:19.702Z,-0.49
2023-03-07T21:27:21.139Z,-0.45
2023-03-07T21:31:25.663Z,-0.46
2023-03-07T21:35:27.192Z,-0.45
2023-03-07T21:39:28.677Z,-0.40
2023-03-07T21:43:30.241Z,-0.27
2023-03-07T21:47:31.774Z,-0.26
2023-03-07T21:51:33.571Z,-0.34
2023-03-07T21:55:35.277Z,-0.29
2023-03-07T21:59:36.778Z,-0.18
2023-03-07T22:03:38.880Z,-0.29
2023-03-07T22:07:40.330Z,-0.22
2023-03-07T22:11:41.845Z,-0.35
2023-03-07T22:15:43.291Z,-0.26
2023-03-07T22:19:44.705Z,-0.44
2023-03-07T22:23:46.320Z,-0.22
2023-03-07T22:27:47.781Z,-0.57
2023-03-07T22:31:49.279Z,-0.44
2023-03-07T22:36:01.885Z,-0.44
2023-03-07T22:40:03.517Z,-0.49
2023-03-07T22:44:04.977Z,-0.43
2023-03-07T22:48:06.435Z,-0.57
2023-03-07T22:52:07.969Z,-0.51
2023-03-07T22:56:17.664Z,-0.57
2023-03-07T23:00:19.574Z,-0.69
2023-03-07T23:04:21.118Z,-0.38
2023-03-07T23:08:22.590Z,-0.47
2023-03-07T23:12:24.052Z,-0.50
2023-03-07T23:16:28.804Z,-0.51
2023-03-07T23:20:30.240Z,-0.63
2023-03-07T23:24:31.656Z,-0.61
2023-03-07T23:28:33.946Z,-0.44
2023-03-07T23:32:35.788Z,-0.75
2023-03-07T23:36:37.465Z,-0.57
2023-03-07T23:40:39.308Z,-0.60
2023-03-07T23:44:40.831Z,-0.71
2023-03-07T23:48:42.218Z,-0.76
2023-03-07T23:52:43.934Z,-0.75
2023-03-07T23:56:45.450Z,-0.72
